createdAt,value
2023-05-13T16:13:52.392Z,20.80
2023-05-13T16:16:20.612Z,21.00
2023-05-13T16:18:47.715Z,21.10
2023-05-13T16:21:14.458Z,21.20
2023-05-13T16:23:41.221Z,21.20
2023-05-13T16:26:08.016Z,21.10
2023-05-13T16:28:34.782Z,20.90
2023-05-13T16:31:01.727Z,20.70
2023-05-13T16:33:30.121Z,20.60
2023-05-13T16:35:56.942Z,20.40
2023-05-13T16:38:25.450Z,20.30
2023-05-13T16:40:52.192Z,20.20
2023-05-13T16:43:18.912Z,20.10
2023-05-13T16:45:45.939Z,20.00
2023-05-13T16:48:14.023Z,19.90
2023-05-13T16:50:41.217Z,19.90
2023-05-13T16:53:07.882Z,19.80
2023-05-13T16:55:35.524Z,19.80
2023-05-13T16:58:03.572Z,19.90
2023-05-13T17:00:30.345Z,19.90
2023-05-13T17:02:57.194Z,19.90
2023-05-13T17:05:23.908Z,19.90
2023-05-13T17:07:50.618Z,20.00
2023-05-13T17:10:17.339Z,20.00
2023-05-13T17:12:44.109Z,19.90
2023-05-13T17:15:11.141Z,20.00
2023-05-13T17:17:40.907Z,19.90
2023-05-13T17:20:08.456Z,19.90
2023-05-13T17:22:35.168Z,19.90
2023-05-13T17:25:01.815Z,19.90
2023-05-13T17:27:28.660Z,19.80
2023-05-13T17:29:55.429Z,19.80
2023-05-13T17:32:22.553Z,19.80
2023-05-13T17:34:49.239Z,19.70
2023-05-13T17:37:15.911Z,19.70
2023-05-13T17:39:42.566Z,19.60
2023-05-13T17:42:09.304Z,19.60
2023-05-13T17:44:36.035Z,19.60
2023-05-13T17:47:02.796Z,19.60
2023-05-13T17:49:29.632Z,19.60
2023-05-13T17:51:56.361Z,19.70
2023-05-13T17:54:23.120Z,19.60
2023-05-13T17:56:50.605Z,19.70
2023-05-13T17:59:17.325Z,19.70
2023-05-13T18:01:44.042Z,19.60
2023-05-13T18:04:11.000Z,19.60
2023-05-13T18:06:37.733Z,19.50
2023-05-13T18:09:04.521Z,19.50
2023-05-13T18:11:31.229Z,19.60
2023-05-13T18:13:57.949Z,19.60
2023-05-13T18:16:24.733Z,19.50
2023-05-13T18:18:51.460Z,19.50
2023-05-13T18:21:18.148Z,19.40
2023-05-13T18:23:46.094Z,19.40
2023-05-13T18:26:12.754Z,19.30
2023-05-13T18:28:42.274Z,19.20
2023-05-13T18:31:09.214Z,19.20
2023-05-13T18:33:35.970Z,19.20
2023-05-13T18:36:02.792Z,19.10
2023-05-13T18:38:29.550Z,19.00
2023-05-13T18:40:56.314Z,19.00
2023-05-13T18:43:23.069Z,18.90
2023-05-13T18:45:49.924Z,18.90
2023-05-13T18:48:16.812Z,18.80
2023-05-13T18:50:43.565Z,18.80
2023-05-13T18:53:10.413Z,18.80
2023-05-13T18:55:39.719Z,18.70
2023-05-13T18:58:06.566Z,18.60
2023-05-13T19:00:33.576Z,18.50
2023-05-13T19:03:00.536Z,18.40
2023-05-13T19:05:27.821Z,18.20
2023-05-13T19:07:55.092Z,18.20
2023-05-13T19:10:22.190Z,18.00
2023-05-13T19:13:14.937Z,17.90
2023-05-13T19:15:41.689Z,17.80
2023-05-13T19:18:08.380Z,17.70
2023-05-13T19:20:35.153Z,17.60
2023-05-13T19:23:01.934Z,17.50
2023-05-13T19:25:29.987Z,17.40
2023-05-13T19:27:57.045Z,17.20
2023-05-13T19:30:23.840Z,17.10
2023-05-13T19:32:50.884Z,17.00
2023-05-13T19:35:17.823Z,16.90
2023-05-13T19:37:44.688Z,16.80
2023-05-13T19:40:11.503Z,16.70
2023-05-13T19:42:38.295Z,16.60
2023-05-13T19:45:09.469Z,16.50
2023-05-13T19:47:38.049Z,16.40
2023-05-13T19:50:05.416Z,16.40
2023-05-13T19:52:32.226Z,16.30
2023-05-13T19:54:58.967Z,16.20
2023-05-13T19:57:28.043Z,16.10
2023-05-13T19:59:55.959Z,16.00
2023-05-13T20:07:57.209Z,15.80
2023-05-13T20:10:24.321Z,15.80
2023-05-13T20:12:51.537Z,15.70
2023-05-13T20:15:18.691Z,15.60
2023-05-13T20:17:45.686Z,15.50
2023-05-13T20:20:15.628Z,15.50
2023-05-13T20:22:42.355Z,15.50
2023-05-13T20:25:09.756Z,15.40
2023-05-13T20:27:36.672Z,15.30
2023-05-13T20:30:04.470Z,15.30
2023-05-13T20:32:31.402Z,15.20
2023-05-13T20:34:58.123Z,15.20
2023-05-13T20:37:24.966Z,15.10
2023-05-13T20:39:51.889Z,15.00
2023-05-13T20:42:21.725Z,15.00
2023-05-13T20:44:48.702Z,15.00
2023-05-13T20:47:16.655Z,14.90
2023-05-13T20:49:43.854Z,14.90
2023-05-13T20:52:11.520Z,14.80
2023-05-13T20:54:38.628Z,14.80
2023-05-13T20:57:05.774Z,14.70
2023-05-13T20:59:32.606Z,14.70
2023-05-13T21:01:59.446Z,14.60
2023-05-13T21:04:26.323Z,14.60
2023-05-13T21:06:53.146Z,14.50
2023-05-13T21:09:20.319Z,14.50
2023-05-13T21:11:47.129Z,14.50
2023-05-13T21:14:13.888Z,14.40
2023-05-13T21:16:40.646Z,14.40
2023-05-13T21:19:07.527Z,14.40
2023-05-13T21:21:34.490Z,14.30
2023-05-13T21:24:01.238Z,14.30
2023-05-13T21:26:28.079Z,14.30
2023-05-13T21:28:54.806Z,14.30
2023-05-13T21:31:21.649Z,14.20
2023-05-13T21:33:49.091Z,14.20
2023-05-13T21:36:16.071Z,14.10
2023-05-13T21:38:42.815Z,14.10
2023-05-13T21:41:09.540Z,14.00
2023-05-13T21:43:36.286Z,14.00
2023-05-13T21:46:03.344Z,13.90
2023-05-13T21:48:30.165Z,13.90
2023-05-13T21:50:56.969Z,13.90
2023-05-13T21:53:23.937Z,13.80
2023-05-13T21:55:51.120Z,13.80
2023-05-13T21:58:17.956Z,13.80
2023-05-13T22:00:45.099Z,13.70
2023-05-13T22:03:12.250Z,13.70
2023-05-13T22:05:43.818Z,13.60
2023-05-13T22:08:11.007Z,13.60
2023-05-13T22:10:38.471Z,13.60
2023-05-13T22:13:06.239Z,13.50
2023-05-13T22:15:32.912Z,13.40
2023-05-13T22:17:59.929Z,13.40
2023-05-13T22:20:26.807Z,13.40
2023-05-13T22:22:53.574Z,13.30
2023-05-13T22:25:21.456Z,13.30
2023-05-13T22:27:48.678Z,13.30
2023-05-13T22:30:18.817Z,13.10
2023-05-13T22:32:45.572Z,13.20
2023-05-13T22:35:14.009Z,13.20
2023-05-13T22:37:40.808Z,13.10
2023-05-13T22:40:09.464Z,13.00
2023-05-13T22:42:36.119Z,13.00
2023-05-13T22:45:03.532Z,12.90
2023-05-13T22:47:30.266Z,12.90
2023-05-13T22:49:56.947Z,12.90
2023-05-13T22:52:23.661Z,12.90
2023-05-13T22:54:50.425Z,12.80
2023-05-13T22:57:17.347Z,12.70
2023-05-13T22:59:44.357Z,12.80
2023-05-13T23:02:11.633Z,12.80
2023-05-13T23:04:39.088Z,12.70
2023-05-13T23:07:05.905Z,12.80
2023-05-13T23:09:32.661Z,12.80
2023-05-13T23:11:59.437Z,12.80
2023-05-13T23:14:27.592Z,12.80
2023-05-13T23:16:54.212Z,12.80
2023-05-13T23:19:20.881Z,12.70
2023-05-13T23:21:47.526Z,12.70
2023-05-13T23:24:14.234Z,12.70
2023-05-13T23:26:42.388Z,12.60
2023-05-13T23:29:09.594Z,12.60
2023-05-13T23:31:36.481Z,12.60
2023-05-13T23:34:03.132Z,12.60
2023-05-13T23:36:29.738Z,12.60
2023-05-13T23:38:56.359Z,12.60
2023-05-13T23:41:23.061Z,12.50
2023-05-13T23:43:49.752Z,12.50
2023-05-13T23:46:16.579Z,12.50
2023-05-13T23:48:43.321Z,12.40
2023-05-13T23:51:10.002Z,12.50
2023-05-13T23:53:36.729Z,12.40
2023-05-13T23:56:03.551Z,12.40
2023-05-13T23:58:30.150Z,12.30
